Overview Statistics Trail Chart Weather Telemetry Raw packets
 

This is the latest recevied weather packets stored in our database for station/object OE6JVE-13. If no packets are shown the sender has not sent any weather packets the latest 10 day(s).

<< 36 37 38 39 40 41 42 >>
Time Temp. Humidity Pressure Rain* Wind** Luminosity Snow
1788081655 26.11° C 47% 1009.9 hPa 0 mm - - -
1788081114 25.56° C 51% 1009.9 hPa 0 mm - - -
1788080471 23.89° C 53% 1010 hPa 0 mm - - -
1788079849 23.33° C 55% 1010.1 hPa 0 mm - - -
1788079256 22.78° C 57% 1010.2 hPa 0 mm - - -
1788077507 21.11° C 65% 1010.3 hPa 0 mm - - -
1788075668 18.89° C 74% 1010.2 hPa 0 mm - - -
1788074496 17.78° C 84% 1010.2 hPa 0 mm - - -
1788073864 16.67° C 89% 1010.2 hPa 0 mm - - -
1788073390 16.11° C 92% 1010.1 hPa 0 mm - - -
1788072020 15° C 95% 1010.1 hPa 0 mm - - -
1788071427 15° C 96% 1010 hPa 0 mm - - -
1788070837 14.44° C 96% 1010.1 hPa 0 mm - - -
1788070248 13.89° C 96% 1010 hPa 0 mm - - -
1788069713 13.89° C 96% 1009.9 hPa 0 mm - - -
1788068468 13.33° C 96% 1009.9 hPa 0 mm - - -
1788067875 13.33° C 96% 1009.8 hPa 0 mm - - -
1788067218 12.78° C 96% 1009.8 hPa 0 mm - - -
1788066626 12.78° C 96% 1009.6 hPa 0 mm - - -
1788066033 12.78° C 95% 1009.5 hPa 0 mm - - -
1788065441 12.78° C 95% 1009.5 hPa 0 mm - - -
1788064849 12.22° C 95% 1009.5 hPa 0 mm - - -
1788064258 12.22° C 95% 1009.5 hPa 0 mm - - -
1788063666 12.22° C 95% 1009.5 hPa 0 mm - - -
1788063073 12.22° C 95% 1009.3 hPa 0 mm - - -

* Rain latest hour (hover to see other rain measurements)
** Current wind speed in m/s (hover to see current wind gust speed)